Time;durP1;ratioP1;P1;durP2;ratioP2;P2;SDS_P1;SDS_P2;PMS_P1;PMS_P2;Temp;Humidity;BMP_temperature;BMP_pressure;BME280_temperature;BME280_humidity;BME280_pressure;Samples;Min_cycle;Max_cycle;Signal;HPM_P1;HPM_P2
2021/08/06 00:01:47;;;;;;;20.58;5.53;;;17.40;99.90;;;;;;5030552;28;20072;-59
2021/08/06 00:04:13;;;;;;;23.13;5.35;;;17.40;99.90;;;;;;5025823;28;20033;-61
2021/08/06 00:06:40;;;;;;;27.65;5.65;;;17.40;99.90;;;;;;5030741;28;20036;-61
2021/08/06 00:09:06;;;;;;;21.92;4.88;;;17.40;99.90;;;;;;5029918;28;20080;-60
2021/08/06 00:11:33;;;;;;;22.27;5.50;;;17.40;99.90;;;;;;5029692;28;20057;-62
2021/08/06 00:13:59;;;;;;;22.02;5.15;;;17.40;99.90;;;;;;5029534;28;20080;-60
2021/08/06 00:16:25;;;;;;;21.67;4.85;;;17.40;99.90;;;;;;5030460;28;20036;-58
2021/08/06 00:18:51;;;;;;;30.73;6.05;;;17.40;99.90;;;;;;5029652;28;20045;-61
2021/08/06 00:21:17;;;;;;;24.85;5.57;;;17.40;99.90;;;;;;5030477;28;20423;-58
2021/08/06 00:23:44;;;;;;;27.42;5.25;;;17.40;99.90;;;;;;5028536;28;20471;-59
2021/08/06 00:26:11;;;;;;;20.08;4.97;;;17.30;99.90;;;;;;5029486;28;20021;-59
2021/08/06 00:28:36;;;;;;;34.65;5.72;;;17.40;99.90;;;;;;5029290;28;20064;-61
2021/08/06 00:31:02;;;;;;;26.08;4.78;;;17.40;99.90;;;;;;5033142;28;20115;-58
2021/08/06 00:33:28;;;;;;;33.58;6.05;;;17.40;99.90;;;;;;5036079;28;20029;-60
2021/08/06 00:35:53;;;;;;;25.48;4.95;;;17.40;99.90;;;;;;5035379;28;20773;-61
2021/08/06 00:38:19;;;;;;;21.38;5.68;;;17.40;99.90;;;;;;5022606;28;20040;-60
2021/08/06 00:40:45;;;;;;;20.25;5.55;;;17.50;99.90;;;;;;5031304;28;20038;-59
2021/08/06 00:43:10;;;;;;;23.17;5.72;;;17.50;99.90;;;;;;5033594;28;20029;-59
2021/08/06 00:45:36;;;;;;;20.25;4.90;;;17.40;99.90;;;;;;5032869;28;20040;-59
2021/08/06 00:48:02;;;;;;;29.83;5.90;;;17.40;99.90;;;;;;5033783;28;20491;-59
2021/08/06 00:50:28;;;;;;;27.13;5.78;;;17.40;99.90;;;;;;5027655;28;20403;-59
2021/08/06 00:52:53;;;;;;;22.05;5.68;;;17.40;99.90;;;;;;5033847;28;20391;-60
2021/08/06 00:55:19;;;;;;;25.77;5.40;;;17.30;99.90;;;;;;5033237;28;20030;-61
2021/08/06 00:57:45;;;;;;;26.83;6.30;;;17.20;99.90;;;;;;5032226;28;20026;-60
2021/08/06 01:00:11;;;;;;;25.33;5.95;;;17.20;99.90;;;;;;5032038;28;20041;-60
2021/08/06 01:02:41;;;;;;;34.83;6.05;;;17.30;99.90;;;;;;5033118;28;20056;-61
2021/08/06 01:05:14;;;;;;;28.27;5.82;;;17.30;99.90;;;;;;5031442;28;20053;-60
2021/08/06 01:07:48;;;;;;;20.08;5.50;;;17.30;99.90;;;;;;5032890;28;20503;-59
2021/08/06 01:10:17;;;;;;;33.25;6.40;;;17.30;99.90;;;;;;5026571;28;20476;-59
2021/08/06 01:12:56;;;;;;;24.60;5.85;;;17.30;99.90;;;;;;5033214;28;20122;-61
2021/08/06 01:15:23;;;;;;;20.35;5.70;;;17.30;99.90;;;;;;5028994;28;20032;-61
2021/08/06 01:17:50;;;;;;;29.48;5.05;;;17.30;99.90;;;;;;5032755;28;20045;-60
2021/08/06 01:20:23;;;;;;;28.60;5.55;;;17.30;99.90;;;;;;5031863;28;20041;-59
2021/08/06 01:22:54;;;;;;;25.35;5.60;;;17.30;99.90;;;;;;5033105;28;20139;-60
2021/08/06 01:25:55;;;;;;;29.00;5.40;;;17.30;99.90;;;;;;5025182;28;20537;-60
2021/08/06 01:28:25;;;;;;;26.25;6.03;;;17.20;99.90;;;;;;5031938;28;20037;-59
2021/08/06 01:30:53;;;;;;;23.70;6.30;;;17.30;99.90;;;;;;5031963;28;20101;-61
2021/08/06 01:33:19;;;;;;;30.58;6.05;;;17.30;99.90;;;;;;5031167;28;20021;-61
2021/08/06 01:35:46;;;;;;;40.13;6.32;;;17.20;99.90;;;;;;5031080;28;20368;-60
2021/08/06 01:38:13;;;;;;;28.02;5.63;;;17.20;99.90;;;;;;5032945;28;20484;-60
2021/08/06 01:41:02;;;;;;;18.33;5.10;;;17.20;99.90;;;;;;5031222;28;20065;-59
2021/08/06 01:43:34;;;;;;;34.60;5.57;;;17.20;99.90;;;;;;5032898;28;20044;-61
2021/08/06 01:46:07;;;;;;;21.17;5.97;;;17.20;99.90;;;;;;5031827;28;20025;-61
2021/08/06 01:48:36;;;;;;;22.25;5.45;;;17.20;99.90;;;;;;5032735;28;20116;-61
2021/08/06 01:51:06;;;;;;;25.85;5.53;;;17.20;99.90;;;;;;5029502;28;20458;-62
2021/08/06 01:53:38;;;;;;;25.17;6.03;;;17.20;99.90;;;;;;5024456;28;20379;-61
2021/08/06 01:56:08;;;;;;;28.92;5.95;;;17.20;99.90;;;;;;5031467;28;20032;-60
2021/08/06 01:58:35;;;;;;;19.73;5.13;;;17.20;99.90;;;;;;5031404;28;20467;-59
2021/08/06 02:01:01;;;;;;;20.17;5.72;;;17.20;99.90;;;;;;5031583;28;20033;-60
2021/08/06 02:03:27;;;;;;;17.50;4.95;;;17.20;99.90;;;;;;5032821;28;20033;-62
2021/08/06 02:05:53;;;;;;;15.60;5.28;;;17.20;99.90;;;;;;5022641;28;20495;-62
2021/08/06 02:08:20;;;;;;;21.30;4.97;;;17.20;99.90;;;;;;5032179;28;20026;-60
2021/08/06 02:10:46;;;;;;;16.48;4.65;;;17.20;99.90;;;;;;5031419;28;20045;-63
2021/08/06 02:13:12;;;;;;;14.60;4.55;;;17.20;99.90;;;;;;5031966;28;20025;-61
2021/08/06 02:15:41;;;;;;;22.65;5.68;;;17.10;99.90;;;;;;5018694;28;20544;-59
2021/08/06 02:18:11;;;;;;;19.35;4.63;;;17.10;99.90;;;;;;5032226;28;20025;-60
2021/08/06 02:20:38;;;;;;;20.70;5.15;;;17.00;99.90;;;;;;5031199;28;20029;-60
2021/08/06 02:23:06;;;;;;;22.10;5.50;;;17.00;99.90;;;;;;5018201;28;20060;-59
2021/08/06 02:25:33;;;;;;;22.55;5.15;;;17.00;99.90;;;;;;5031340;28;20112;-60
2021/08/06 02:28:00;;;;;;;16.88;4.90;;;17.00;99.90;;;;;;5031419;28;20052;-59
2021/08/06 02:30:29;;;;;;;22.08;5.25;;;17.00;99.90;;;;;;5026631;28;20052;-60
2021/08/06 02:32:55;;;;;;;21.73;4.50;;;17.10;99.90;;;;;;5031681;28;20075;-59
2021/08/06 02:35:21;;;;;;;20.60;5.55;;;17.00;99.90;;;;;;5030250;28;20021;-59
2021/08/06 02:37:49;;;;;;;21.77;4.60;;;17.00;99.90;;;;;;5031685;28;20113;-59
2021/08/06 02:40:15;;;;;;;22.75;5.80;;;17.00;99.90;;;;;;5031166;28;20087;-59
2021/08/06 02:42:41;;;;;;;18.98;4.93;;;17.00;99.90;;;;;;5031228;28;20029;-61
2021/08/06 02:45:08;;;;;;;18.38;4.50;;;17.00;99.90;;;;;;5030735;28;20341;-59
2021/08/06 02:47:34;;;;;;;24.15;5.40;;;17.00;99.90;;;;;;5031924;28;20079;-59
2021/08/06 02:50:00;;;;;;;14.80;4.55;;;17.00;99.90;;;;;;5028696;28;20390;-58
2021/08/06 02:52:25;;;;;;;21.52;4.93;;;17.00;99.90;;;;;;5030833;28;20076;-60
2021/08/06 02:54:51;;;;;;;19.00;4.65;;;17.00;99.90;;;;;;5030867;28;20034;-61
2021/08/06 02:57:17;;;;;;;24.42;5.20;;;17.00;99.90;;;;;;5031095;28;20100;-61
2021/08/06 02:59:43;;;;;;;27.40;5.38;;;16.90;99.90;;;;;;5028118;28;20041;-59
2021/08/06 03:02:09;;;;;;;20.38;5.13;;;16.80;99.90;;;;;;5029879;28;20041;-61
2021/08/06 03:04:35;;;;;;;20.90;4.97;;;16.80;99.90;;;;;;5031119;28;20033;-59
2021/08/06 03:07:01;;;;;;;20.10;4.70;;;16.80;99.90;;;;;;5030885;28;20036;-58
2021/08/06 03:09:27;;;;;;;23.15;5.30;;;16.80;99.90;;;;;;5031310;28;20041;-59
2021/08/06 03:11:53;;;;;;;23.38;5.40;;;16.80;99.90;;;;;;5030487;28;20411;-59
2021/08/06 03:14:18;;;;;;;20.35;5.30;;;16.80;99.90;;;;;;5031145;28;20025;-62
2021/08/06 03:16:44;;;;;;;21.10;5.55;;;16.80;99.90;;;;;;5023493;28;20479;-60
2021/08/06 03:19:10;;;;;;;22.17;4.82;;;16.80;99.90;;;;;;5031064;28;20349;-60
2021/08/06 03:21:35;;;;;;;27.05;5.70;;;16.70;99.90;;;;;;5030485;28;20040;-59
2021/08/06 03:24:01;;;;;;;22.42;4.85;;;16.70;99.90;;;;;;5031007;28;20028;-60
2021/08/06 03:26:27;;;;;;;20.65;4.93;;;16.70;99.90;;;;;;5023448;28;20467;-60
2021/08/06 03:28:53;;;;;;;23.83;4.95;;;16.80;99.90;;;;;;5030777;28;20555;-61
2021/08/06 03:31:18;;;;;;;22.65;5.43;;;16.80;99.90;;;;;;5029943;28;20419;-59
2021/08/06 03:33:44;;;;;;;14.07;5.07;;;16.70;99.90;;;;;;5032924;28;20034;-59
2021/08/06 03:36:12;;;;;;;21.70;5.15;;;16.70;99.90;;;;;;5025369;28;20052;-60
2021/08/06 03:38:38;;;;;;;21.02;4.80;;;16.70;99.90;;;;;;5030969;28;20025;-62
2021/08/06 03:41:03;;;;;;;20.65;5.30;;;16.70;99.90;;;;;;5029826;28;20471;-59
2021/08/06 03:43:29;;;;;;;21.13;4.68;;;16.70;99.90;;;;;;5026110;28;20484;-61
2021/08/06 03:45:55;;;;;;;20.77;5.03;;;16.60;99.90;;;;;;5024360;28;20089;-60
2021/08/06 03:48:20;;;;;;;22.73;5.07;;;16.60;99.90;;;;;;5031056;28;20021;-60
2021/08/06 03:50:46;;;;;;;19.75;4.93;;;16.60;99.90;;;;;;5020801;28;20037;-61
2021/08/06 03:53:12;;;;;;;21.35;4.28;;;16.60;99.90;;;;;;5028040;28;20029;-60
2021/08/06 03:55:38;;;;;;;19.45;4.70;;;16.60;99.90;;;;;;5029154;28;20104;-59
2021/08/06 03:58:04;;;;;;;17.27;4.50;;;16.60;99.90;;;;;;5030172;28;20045;-60
2021/08/06 04:00:37;;;;;;;15.63;4.68;;;16.60;99.90;;;;;;5028938;28;20089;-59
2021/08/06 04:03:03;;;;;;;24.02;5.15;;;16.60;99.90;;;;;;5030281;28;20075;-60
2021/08/06 04:05:29;;;;;;;22.35;5.07;;;16.50;99.90;;;;;;5027224;28;20065;-60
2021/08/06 04:07:54;;;;;;;22.77;5.93;;;16.50;99.90;;;;;;5033831;28;20047;-59
2021/08/06 04:10:22;;;;;;;16.65;4.47;;;16.40;99.90;;;;;;5028564;28;20128;-62
2021/08/06 04:12:48;;;;;;;16.70;4.78;;;16.40;99.90;;;;;;5034384;28;20038;-62
2021/08/06 04:15:15;;;;;;;15.95;4.65;;;16.40;99.90;;;;;;5033525;28;20033;-58
2021/08/06 04:17:41;;;;;;;20.13;5.05;;;16.40;99.90;;;;;;5030553;28;20095;-59
2021/08/06 04:20:08;;;;;;;18.50;4.50;;;16.40;99.90;;;;;;5039265;28;20064;-60
2021/08/06 04:22:33;;;;;;;19.02;5.20;;;16.40;99.90;;;;;;5034111;28;20434;-58
2021/08/06 04:24:59;;;;;;;21.75;5.25;;;16.40;99.90;;;;;;5032203;28;20460;-60
2021/08/06 04:27:25;;;;;;;18.25;4.28;;;16.40;99.90;;;;;;5030844;28;20058;-61
2021/08/06 04:29:51;;;;;;;23.48;5.18;;;16.30;99.90;;;;;;5034269;28;20034;-61
2021/08/06 04:32:17;;;;;;;19.52;4.45;;;16.40;99.90;;;;;;5031071;28;20128;-59
2021/08/06 04:34:43;;;;;;;18.90;5.25;;;16.50;99.90;;;;;;5032398;28;20124;-60
2021/08/06 04:37:09;;;;;;;18.92;4.28;;;16.40;99.90;;;;;;5025653;28;20172;-61
2021/08/06 04:39:34;;;;;;;24.05;4.80;;;16.50;99.90;;;;;;5033790;28;20029;-61
2021/08/06 04:42:00;;;;;;;21.15;4.38;;;16.50;99.90;;;;;;5033416;28;20034;-60
2021/08/06 04:44:26;;;;;;;25.08;4.97;;;16.50;99.90;;;;;;5034050;28;20034;-61
2021/08/06 04:46:52;;;;;;;18.73;4.55;;;16.50;99.90;;;;;;5033462;28;20472;-62
2021/08/06 04:49:17;;;;;;;17.60;4.97;;;16.60;99.90;;;;;;5033581;28;20026;-60
2021/08/06 04:51:43;;;;;;;20.52;5.20;;;16.60;99.90;;;;;;5032808;28;20361;-60
2021/08/06 04:54:09;;;;;;;24.35;5.63;;;16.60;99.90;;;;;;5033315;28;20052;-59
2021/08/06 04:56:35;;;;;;;16.77;5.03;;;16.60;99.90;;;;;;5031792;28;20041;-60
2021/08/06 04:59:01;;;;;;;15.63;4.50;;;16.60;99.90;;;;;;5032397;28;20399;-58
2021/08/06 05:01:29;;;;;;;18.20;4.55;;;16.60;99.90;;;;;;5031936;28;20025;-61
2021/08/06 05:03:55;;;;;;;16.27;5.38;;;16.60;99.90;;;;;;5033434;28;20076;-59
2021/08/06 05:06:20;;;;;;;21.38;5.05;;;16.60;99.90;;;;;;5032447;28;20049;-60
2021/08/06 05:08:49;;;;;;;18.83;5.15;;;16.60;99.90;;;;;;5033648;28;20103;-60
2021/08/06 05:11:15;;;;;;;17.95;5.22;;;16.70;99.90;;;;;;5022867;28;20467;-61
2021/08/06 05:13:41;;;;;;;20.67;4.95;;;16.70;99.90;;;;;;5032265;28;20075;-60
2021/08/06 05:16:07;;;;;;;22.40;5.05;;;16.60;99.90;;;;;;5031544;28;20072;-61
2021/08/06 05:18:38;;;;;;;17.67;4.50;;;16.60;99.90;;;;;;5033684;28;20030;-59
2021/08/06 05:21:04;;;;;;;20.35;5.45;;;16.60;99.90;;;;;;5030002;28;20033;-60
2021/08/06 05:23:29;;;;;;;18.73;6.28;;;16.70;99.90;;;;;;5032561;28;20529;-61
2021/08/06 05:25:56;;;;;;;24.88;4.78;;;16.70;99.90;;;;;;5031804;28;20041;-61
2021/08/06 05:28:21;;;;;;;19.08;4.68;;;16.70;99.90;;;;;;5033080;28;20492;-60
2021/08/06 05:30:47;;;;;;;18.02;4.57;;;16.70;99.90;;;;;;5028780;28;20034;-59
2021/08/06 05:33:13;;;;;;;18.25;4.85;;;16.70;99.90;;;;;;5032948;28;20079;-60
2021/08/06 05:35:39;;;;;;;19.55;4.63;;;16.80;99.90;;;;;;5032300;28;20037;-59
2021/08/06 05:38:06;;;;;;;15.63;4.55;;;16.80;99.90;;;;;;5033361;28;20049;-61
2021/08/06 05:40:32;;;;;;;16.85;5.07;;;16.80;99.90;;;;;;5030773;28;20421;-61
2021/08/06 05:42:58;;;;;;;17.63;4.47;;;16.90;99.90;;;;;;5031722;28;20052;-59
2021/08/06 05:45:24;;;;;;;16.77;4.60;;;16.90;99.90;;;;;;5032694;28;20021;-59
2021/08/06 05:47:53;;;;;;;15.55;4.25;;;16.90;99.90;;;;;;5031534;28;20033;-59
2021/08/06 05:50:21;;;;;;;12.45;4.13;;;16.90;99.90;;;;;;5032521;28;20079;-61
2021/08/06 05:52:47;;;;;;;14.82;4.32;;;16.80;99.90;;;;;;5032075;28;20030;-61
2021/08/06 05:55:14;;;;;;;16.17;4.28;;;16.90;99.90;;;;;;5032780;28;20029;-59
2021/08/06 05:57:39;;;;;;;14.13;4.30;;;16.90;99.90;;;;;;5029387;28;20044;-59
2021/08/06 06:00:08;;;;;;;13.90;4.07;;;16.90;99.90;;;;;;5032473;28;20029;-59
2021/08/06 06:02:33;;;;;;;21.65;4.05;;;16.90;99.90;;;;;;5031447;28;20033;-59
2021/08/06 06:04:59;;;;;;;17.63;3.90;;;17.00;99.90;;;;;;5032452;28;20026;-59
2021/08/06 06:07:25;;;;;;;15.25;3.58;;;17.00;99.90;;;;;;5031907;28;20028;-59
2021/08/06 06:09:51;;;;;;;11.15;3.60;;;17.00;99.90;;;;;;5032145;28;20058;-59
2021/08/06 06:12:17;;;;;;;9.10;3.70;;;17.10;99.90;;;;;;5030385;28;20033;-59
2021/08/06 06:14:42;;;;;;;12.40;3.20;;;17.20;99.90;;;;;;5032220;28;20048;-60
2021/08/06 06:17:11;;;;;;;9.23;3.42;;;17.20;99.90;;;;;;5031460;28;20506;-60
2021/08/06 06:19:37;;;;;;;12.25;3.85;;;17.20;99.90;;;;;;5019797;28;20041;-60
2021/08/06 06:22:04;;;;;;;10.95;3.17;;;17.20;99.90;;;;;;5029323;28;20040;-62
2021/08/06 06:24:29;;;;;;;11.65;3.22;;;17.20;99.90;;;;;;5031890;28;20060;-60
2021/08/06 06:26:55;;;;;;;13.02;3.35;;;17.20;99.90;;;;;;5031280;28;20040;-60
2021/08/06 06:29:21;;;;;;;9.32;2.85;;;17.20;99.90;;;;;;5031925;28;20026;-60
2021/08/06 06:31:46;;;;;;;9.68;2.63;;;17.20;99.90;;;;;;5027055;28;20100;-60
2021/08/06 06:34:12;;;;;;;8.93;2.70;;;17.20;99.90;;;;;;5030971;28;20021;-59
2021/08/06 06:36:38;;;;;;;11.07;3.15;;;17.20;99.90;;;;;;5029857;28;20025;-60
2021/08/06 06:39:03;;;;;;;10.05;3.05;;;17.20;99.90;;;;;;5032109;28;20457;-59
2021/08/06 06:41:30;;;;;;;7.75;2.80;;;17.10;99.90;;;;;;5027562;28;20040;-58
2021/08/06 06:43:56;;;;;;;9.40;3.00;;;17.10;99.90;;;;;;5027811;28;20079;-60
2021/08/06 06:46:22;;;;;;;13.93;2.95;;;17.10;99.90;;;;;;5028666;28;20451;-58
2021/08/06 06:48:47;;;;;;;7.72;2.65;;;17.10;99.90;;;;;;5031535;28;20029;-58
2021/08/06 06:51:13;;;;;;;10.73;3.33;;;17.10;99.90;;;;;;5030049;28;20044;-60
2021/08/06 06:53:39;;;;;;;13.95;2.50;;;17.10;99.90;;;;;;5028954;28;20037;-58
2021/08/06 06:56:04;;;;;;;10.80;3.03;;;17.10;99.90;;;;;;5028644;28;20120;-59
2021/08/06 06:58:30;;;;;;;13.20;2.80;;;17.20;99.90;;;;;;5029459;28;20041;-61
2021/08/06 07:00:57;;;;;;;10.93;2.92;;;17.30;99.90;;;;;;5030924;28;20129;-59
2021/08/06 07:03:23;;;;;;;11.82;3.10;;;17.30;99.90;;;;;;5030424;28;20548;-60
2021/08/06 07:05:49;;;;;;;9.88;2.50;;;17.30;99.90;;;;;;5029389;28;20113;-62
2021/08/06 07:08:15;;;;;;;7.07;2.30;;;17.30;99.90;;;;;;5029276;28;20025;-59
2021/08/06 07:10:41;;;;;;;11.25;2.67;;;17.30;99.90;;;;;;5031441;28;20452;-63
2021/08/06 07:13:06;;;;;;;8.48;2.75;;;17.30;99.90;;;;;;5030003;28;20030;-62
2021/08/06 07:15:32;;;;;;;7.50;2.97;;;17.30;99.90;;;;;;5029094;28;20036;-60
2021/08/06 07:17:58;;;;;;;11.50;2.78;;;17.40;99.90;;;;;;5030151;28;20107;-59
2021/08/06 07:20:24;;;;;;;6.53;2.50;;;17.40;99.90;;;;;;5031138;28;20061;-61
2021/08/06 07:22:50;;;;;;;8.13;2.72;;;17.50;99.90;;;;;;5029846;28;20090;-60
2021/08/06 07:25:17;;;;;;;8.63;2.70;;;17.50;99.90;;;;;;5029557;28;20041;-60
2021/08/06 07:27:44;;;;;;;13.60;2.88;;;17.60;99.90;;;;;;5028366;28;20048;-60
2021/08/06 07:30:14;;;;;;;10.00;2.70;;;17.70;99.90;;;;;;5031545;28;20040;-60
2021/08/06 07:32:40;;;;;;;9.68;2.65;;;17.60;99.90;;;;;;5029448;28;20052;-61
2021/08/06 07:35:07;;;;;;;11.00;2.47;;;17.50;99.90;;;;;;5028935;28;20464;-59
2021/08/06 07:37:33;;;;;;;15.52;3.10;;;17.50;99.90;;;;;;5024929;28;20068;-60
2021/08/06 07:39:59;;;;;;;9.70;3.05;;;17.40;99.90;;;;;;5030416;28;20502;-60
2021/08/06 07:42:25;;;;;;;13.82;3.42;;;17.50;99.90;;;;;;5029804;28;20022;-61
2021/08/06 07:44:51;;;;;;;12.25;2.83;;;17.50;99.90;;;;;;5030542;28;20124;-63
2021/08/06 07:47:16;;;;;;;14.30;3.65;;;17.60;99.90;;;;;;5022490;28;20155;-60
2021/08/06 07:49:42;;;;;;;14.52;2.83;;;17.50;99.90;;;;;;5030505;28;20116;-61
2021/08/06 07:52:10;;;;;;;8.90;2.78;;;17.50;99.90;;;;;;5029073;28;20034;-60
2021/08/06 07:54:36;;;;;;;10.82;3.00;;;17.40;99.90;;;;;;5030649;28;20044;-61
2021/08/06 07:57:02;;;;;;;8.50;3.05;;;17.40;99.90;;;;;;5028670;28;20026;-61
2021/08/06 07:59:28;;;;;;;10.80;2.60;;;17.40;99.90;;;;;;5029289;28;20042;-61
2021/08/06 08:01:54;;;;;;;8.20;2.65;;;17.40;99.90;;;;;;5028842;28;20573;-60
2021/08/06 08:04:20;;;;;;;10.88;2.60;;;17.50;99.90;;;;;;5030379;28;20104;-61
2021/08/06 08:06:46;;;;;;;11.63;2.95;;;17.50;99.90;;;;;;5029779;28;20464;-59
2021/08/06 08:09:12;;;;;;;11.18;4.40;;;17.70;99.90;;;;;;5030584;28;20035;-61
2021/08/06 08:11:38;;;;;;;9.20;2.72;;;18.10;99.90;;;;;;5030340;28;20029;-61
2021/08/06 08:14:04;;;;;;;14.30;2.92;;;18.20;99.90;;;;;;5029587;28;20030;-59
2021/08/06 08:16:30;;;;;;;13.75;2.58;;;18.30;99.90;;;;;;5029546;28;20478;-59
2021/08/06 08:18:55;;;;;;;9.60;2.53;;;18.30;99.90;;;;;;5029460;28;20400;-61
2021/08/06 08:21:21;;;;;;;11.90;2.90;;;18.30;99.90;;;;;;5030737;28;20065;-61
2021/08/06 08:23:47;;;;;;;10.27;2.72;;;18.40;99.90;;;;;;5018663;28;20044;-61
2021/08/06 08:26:13;;;;;;;12.13;3.45;;;18.50;99.90;;;;;;5029332;28;20456;-60
2021/08/06 08:28:38;;;;;;;13.23;3.80;;;18.50;99.90;;;;;;5028581;28;20046;-60
2021/08/06 08:31:04;;;;;;;9.07;2.65;;;18.70;99.90;;;;;;5030522;28;20060;-60
2021/08/06 08:33:30;;;;;;;12.88;2.70;;;18.80;99.90;;;;;;5028393;28;20034;-60
2021/08/06 08:35:56;;;;;;;11.05;2.80;;;18.90;99.90;;;;;;5023160;28;20129;-61
2021/08/06 08:38:22;;;;;;;10.70;2.80;;;19.10;99.90;;;;;;5022000;28;20069;-60
2021/08/06 08:40:48;;;;;;;11.68;2.88;;;19.40;99.90;;;;;;5019294;28;20460;-59
2021/08/06 08:43:13;;;;;;;13.50;3.00;;;19.90;99.90;;;;;;5029065;28;20053;-61
2021/08/06 08:45:40;;;;;;;9.95;3.20;;;20.10;99.90;;;;;;5029626;28;20039;-60
2021/08/06 08:48:08;;;;;;;7.50;2.38;;;20.20;99.90;;;;;;5027804;28;20125;-59
2021/08/06 08:50:36;;;;;;;10.48;2.88;;;20.20;99.90;;;;;;5028580;28;20025;-60
2021/08/06 08:53:03;;;;;;;10.95;3.50;;;20.00;99.90;;;;;;5035717;28;20487;-60
2021/08/06 08:55:29;;;;;;;8.48;2.42;;;19.90;99.90;;;;;;5035371;28;20040;-60
2021/08/06 08:57:55;;;;;;;11.65;3.50;;;19.90;99.90;;;;;;5032772;28;20041;-60
2021/08/06 09:00:21;;;;;;;7.65;2.47;;;19.70;99.90;;;;;;5030649;28;20029;-59
2021/08/06 09:02:46;;;;;;;8.57;2.20;;;19.40;99.90;;;;;;5021893;28;20113;-60
2021/08/06 09:05:17;;;;;;;11.55;3.03;;;19.10;99.90;;;;;;5028995;28;20038;-60
2021/08/06 09:07:43;;;;;;;8.07;2.60;;;19.20;99.90;;;;;;5029194;28;20483;-60
2021/08/06 09:10:16;;;;;;;9.25;2.70;;;19.40;99.90;;;;;;5033566;28;20033;-62
2021/08/06 09:12:52;;;;;;;7.15;1.85;;;19.80;99.90;;;;;;5032688;28;20029;-61
2021/08/06 09:15:45;;;;;;;6.55;2.13;;;20.00;99.90;;;;;;5023040;28;20057;-60
2021/08/06 09:18:23;;;;;;;6.00;1.90;;;20.10;99.90;;;;;;5019902;28;20072;-60
2021/08/06 09:20:56;;;;;;;5.88;2.00;;;19.80;99.90;;;;;;5030267;28;20410;-61
2021/08/06 09:23:41;;;;;;;7.80;2.13;;;19.80;99.90;;;;;;5028477;28;20391;-59
2021/08/06 09:26:27;;;;;;;6.43;2.40;;;19.70;99.90;;;;;;5026475;28;20022;-62
2021/08/06 09:29:13;;;;;;;6.13;2.03;;;19.70;99.90;;;;;;5031934;28;20111;-61
2021/08/06 09:31:55;;;;;;;7.13;2.20;;;19.70;99.90;;;;;;5031539;28;20503;-61
2021/08/06 09:34:24;;;;;;;6.57;2.35;;;19.60;99.90;;;;;;5031435;28;20040;-59
2021/08/06 09:37:02;;;;;;;6.28;1.80;;;19.50;99.90;;;;;;5032469;28;20030;-60
2021/08/06 09:39:35;;;;;;;7.60;2.30;;;19.50;99.90;;;;;;5033259;28;20184;-60
2021/08/06 09:42:02;;;;;;;6.72;2.08;;;19.50;99.90;;;;;;5028243;28;20112;-61
2021/08/06 09:44:29;;;;;;;7.50;2.25;;;19.40;99.90;;;;;;5030771;28;20036;-60
2021/08/06 09:46:56;;;;;;;6.68;2.22;;;19.40;99.90;;;;;;5032651;28;20032;-59
2021/08/06 09:49:22;;;;;;;7.25;2.28;;;19.60;99.90;;;;;;5031907;28;20030;-60
2021/08/06 09:51:50;;;;;;;11.35;3.05;;;19.70;99.90;;;;;;5030837;28;20053;-59
2021/08/06 09:54:27;;;;;;;4.90;2.00;;;20.00;99.90;;;;;;5025136;28;20021;-60
2021/08/06 09:57:14;;;;;;;11.23;2.22;;;20.40;99.90;;;;;;5017321;28;20040;-59
2021/08/06 09:59:40;;;;;;;5.30;1.80;;;20.60;99.90;;;;;;5025685;28;20037;-60
2021/08/06 10:02:25;;;;;;;4.72;1.90;;;20.80;99.90;;;;;;5031643;28;20049;-61
2021/08/06 10:04:58;;;;;;;4.88;1.65;;;20.70;99.90;;;;;;5031547;28;20360;-60
2021/08/06 10:07:25;;;;;;;4.25;1.67;;;20.60;99.90;;;;;;5028020;28;20033;-60
2021/08/06 10:09:51;;;;;;;4.93;2.00;;;20.50;99.90;;;;;;5031644;28;20483;-60
2021/08/06 10:12:17;;;;;;;6.50;2.25;;;20.40;99.90;;;;;;5030993;28;20071;-62
2021/08/06 10:14:43;;;;;;;3.50;1.52;;;20.30;99.90;;;;;;5029187;28;20260;-61
2021/08/06 10:17:12;;;;;;;8.57;1.75;;;20.30;99.90;;;;;;5031957;28;20414;-61
2021/08/06 10:19:39;;;;;;;4.80;1.98;;;20.10;99.90;;;;;;5030598;28;20472;-59
2021/08/06 10:22:06;;;;;;;6.07;2.25;;;20.20;99.90;;;;;;5021605;28;20042;-60
2021/08/06 10:24:35;;;;;;;6.75;1.73;;;20.20;99.90;;;;;;5024201;28;20052;-61
2021/08/06 10:27:01;;;;;;;6.72;1.60;;;20.10;99.90;;;;;;5031410;28;20041;-59
2021/08/06 10:29:27;;;;;;;5.15;1.23;;;20.10;99.90;;;;;;5030053;28;20030;-59
2021/08/06 10:32:11;;;;;;;6.32;1.27;;;20.30;99.90;;;;;;5030692;28;20127;-62
2021/08/06 10:35:04;;;;;;;6.20;1.20;;;20.20;99.90;;;;;;5030301;28;20693;-59
2021/08/06 10:37:56;;;;;;;2.22;1.00;;;20.50;99.90;;;;;;5031291;28;20037;-61
2021/08/06 10:40:35;;;;;;;6.75;1.17;;;20.50;99.90;;;;;;5030850;28;20093;-61
2021/08/06 10:43:34;;;;;;;5.22;1.42;;;20.40;99.90;;;;;;5030037;28;20033;-61
2021/08/06 10:46:00;;;;;;;5.00;1.30;;;20.40;99.90;;;;;;5024210;28;20060;-60
2021/08/06 10:48:31;;;;;;;3.25;1.10;;;20.40;99.90;;;;;;5028815;28;20029;-60
2021/08/06 10:51:15;;;;;;;4.88;1.40;;;20.40;99.90;;;;;;5029586;28;20064;-60
2021/08/06 10:53:58;;;;;;;3.28;1.13;;;20.30;99.90;;;;;;5029134;28;20033;-60
2021/08/06 10:56:29;;;;;;;5.63;2.03;;;20.20;99.90;;;;;;5030837;28;20056;-60
2021/08/06 10:59:15;;;;;;;5.78;1.70;;;20.10;99.90;;;;;;5028483;28;20108;-60
2021/08/06 11:01:47;;;;;;;6.47;1.50;;;20.20;99.90;;;;;;5022468;28;20120;-60
2021/08/06 11:04:13;;;;;;;4.93;1.65;;;20.30;99.90;;;;;;5030254;28;20479;-60
2021/08/06 11:06:42;;;;;;;5.97;1.65;;;20.50;99.90;;;;;;5028986;28;20036;-60
2021/08/06 11:09:29;;;;;;;3.88;1.50;;;20.70;99.90;;;;;;5030355;28;20033;-59
2021/08/06 11:12:02;;;;;;;5.55;1.50;;;21.00;99.90;;;;;;5030974;28;20025;-63
2021/08/06 11:14:34;;;;;;;6.65;1.60;;;21.40;99.90;;;;;;5029365;28;20048;-60
2021/08/06 11:17:11;;;;;;;5.90;1.83;;;21.40;99.90;;;;;;5030556;28;20026;-60
2021/08/06 11:19:38;;;;;;;4.35;1.75;;;21.40;99.90;;;;;;5018332;28;20124;-61
2021/08/06 11:22:16;;;;;;;11.60;1.88;;;21.20;99.90;;;;;;5029746;28;20123;-61
2021/08/06 11:24:53;;;;;;;4.85;1.67;;;21.10;99.90;;;;;;5029745;28;20369;-60
2021/08/06 11:27:20;;;;;;;4.82;1.60;;;21.00;99.90;;;;;;5027514;28;20057;-59
2021/08/06 11:30:19;;;;;;;9.35;2.78;;;21.10;99.90;;;;;;5019754;28;20064;-59
2021/08/06 11:32:59;;;;;;;11.70;2.47;;;21.30;99.90;;;;;;5013869;28;20057;-59
2021/08/06 11:35:32;;;;;;;12.48;2.20;;;21.70;99.90;;;;;;5017734;28;20069;-61
2021/08/06 11:38:08;;;;;;;4.47;1.75;;;21.80;99.90;;;;;;5028530;28;20025;-60
2021/08/06 11:40:36;;;;;;;9.60;2.08;;;21.80;99.90;;;;;;5019621;28;20112;-61
2021/08/06 11:43:18;;;;;;;7.70;2.17;;;21.70;99.90;;;;;;5029315;28;20041;-61
2021/08/06 11:45:47;;;;;;;6.63;1.85;;;21.70;99.90;;;;;;5019491;28;20034;-61
2021/08/06 11:48:13;;;;;;;9.20;2.13;;;21.70;99.90;;;;;;5020120;28;20160;-60
2021/08/06 11:50:57;;;;;;;8.55;1.90;;;21.80;99.90;;;;;;5029638;28;20517;-60
2021/08/06 11:53:28;;;;;;;6.75;2.15;;;22.00;99.90;;;;;;5027417;28;20017;-59
2021/08/06 11:55:56;;;;;;;7.80;2.30;;;22.10;99.90;;;;;;5029530;28;20434;-58
2021/08/06 11:58:30;;;;;;;5.40;2.10;;;22.20;99.90;;;;;;5029412;28;20087;-61
2021/08/06 12:00:56;;;;;;;7.20;2.30;;;22.20;99.90;;;;;;5030542;28;20039;-61
2021/08/06 12:03:22;;;;;;;9.05;2.40;;;22.00;99.90;;;;;;5026916;28;20116;-61
2021/08/06 12:05:51;;;;;;;4.82;1.90;;;21.70;99.90;;;;;;5029742;28;20030;-60
2021/08/06 12:08:33;;;;;;;12.15;2.22;;;21.50;99.90;;;;;;5024783;28;20432;-62
2021/08/06 12:11:05;;;;;;;6.60;2.33;;;21.70;99.90;;;;;;5025737;28;20071;-61
2021/08/06 12:13:59;;;;;;;10.35;2.55;;;21.40;99.90;;;;;;5025779;28;20041;-60
2021/08/06 12:16:30;;;;;;;11.88;2.63;;;21.50;99.90;;;;;;5028480;28;20041;-61
2021/08/06 12:18:58;;;;;;;14.60;2.60;;;21.80;99.90;;;;;;5029282;28;20367;-60
2021/08/06 12:21:29;;;;;;;9.10;2.47;;;21.90;99.90;;;;;;5030103;28;20087;-61
2021/08/06 12:24:16;;;;;;;10.63;2.95;;;22.00;99.90;;;;;;5014702;28;20042;-61
2021/08/06 12:26:48;;;;;;;13.30;2.47;;;22.00;99.90;;;;;;5026501;28;20033;-59
2021/08/06 12:29:20;;;;;;;11.25;2.50;;;22.00;99.90;;;;;;5032466;28;20049;-60
2021/08/06 12:32:03;;;;;;;6.90;2.10;;;22.10;99.90;;;;;;5034034;28;20033;-61
2021/08/06 12:34:38;;;;;;;9.57;2.40;;;22.30;99.90;;;;;;5033273;28;20120;-60
2021/08/06 12:37:08;;;;;;;6.35;2.47;;;22.30;99.90;;;;;;5033877;28;20475;-60
2021/08/06 12:39:53;;;;;;;12.50;2.13;;;22.40;99.90;;;;;;5021331;28;20033;-60
2021/08/06 12:42:23;;;;;;;11.03;2.50;;;22.30;99.90;;;;;;5027002;28;20059;-59
2021/08/06 12:45:14;;;;;;;7.13;2.33;;;22.40;99.90;;;;;;5023283;28;20291;-61
2021/08/06 12:47:46;;;;;;;10.88;3.40;;;22.30;99.90;;;;;;5030970;28;20045;-60
2021/08/06 12:50:14;;;;;;;13.15;3.08;;;22.20;99.90;;;;;;5032617;28;20025;-60